ΕΜΥ, Εθνική Μετεωρολογική Υπηρεσία - Δελτία Καιρού, Προγνώσεις

ΑΕΡΟΝΑΥΤΙΛΙΑ

GREEK AIRPORTS CODES

LGML 211000Z 35015KT 9999 FEW018 27/19 Q1014=

EUROPEAN AIRPORTS CODES

LFPO 211130Z 05005KT 320V120 9999 FEW043 BKN250 22/11 Q1027NOSIG=